createdAt,value
2019-04-29T00:02:17.012Z,29.87
2019-04-29T00:04:46.181Z,30.03
2019-04-29T00:07:15.683Z,30.00
2019-04-29T00:09:45.227Z,29.33
2019-04-29T00:12:14.454Z,28.87
2019-04-29T00:14:45.439Z,29.50
2019-04-29T00:17:28.937Z,28.07
2019-04-29T00:20:11.864Z,28.90
2019-04-29T00:22:41.063Z,30.57
2019-04-29T00:25:10.863Z,29.87
2019-04-29T00:27:40.011Z,28.63
2019-04-29T00:30:11.146Z,30.17
2019-04-29T00:32:40.315Z,31.97
2019-04-29T00:35:09.542Z,33.80
2019-04-29T00:37:43.352Z,33.63
2019-04-29T00:40:14.447Z,42.53
2019-04-29T00:42:54.574Z,49.17
2019-04-29T00:45:24.107Z,49.70
2019-04-29T00:47:53.727Z,47.17
2019-04-29T00:50:22.938Z,45.27
2019-04-29T00:52:52.185Z,45.33
2019-04-29T00:55:25.472Z,44.60
2019-04-29T00:57:54.750Z,47.50
2019-04-29T01:00:28.875Z,45.77
2019-04-29T01:02:58.034Z,41.00
2019-04-29T01:05:27.597Z,39.60
2019-04-29T01:07:56.801Z,35.77
2019-04-29T01:10:26.076Z,34.80
2019-04-29T01:12:55.497Z,32.53
2019-04-29T01:15:24.662Z,33.70
2019-04-29T01:17:53.879Z,33.17
2019-04-29T01:20:23.130Z,31.87
2019-04-29T01:22:52.961Z,32.03
2019-04-29T01:25:22.272Z,32.07
2019-04-29T01:27:55.886Z,32.33
2019-04-29T01:30:55.036Z,32.03
2019-04-29T01:33:24.407Z,32.40
2019-04-29T01:35:55.329Z,32.73
2019-04-29T01:38:24.541Z,32.60
2019-04-29T01:41:14.627Z,34.57
2019-04-29T01:44:00.303Z,33.63
2019-04-29T01:46:30.145Z,35.00
2019-04-29T01:48:59.591Z,37.00
2019-04-29T01:51:28.998Z,37.40
2019-04-29T01:53:58.612Z,36.70
2019-04-29T01:56:28.470Z,37.53
2019-04-29T01:58:57.638Z,38.30
2019-04-29T02:01:26.969Z,38.20
2019-04-29T02:03:56.165Z,34.50
2019-04-29T02:06:25.422Z,33.50
2019-04-29T02:08:56.127Z,33.07
2019-04-29T02:11:25.367Z,34.47
2019-04-29T02:13:54.532Z,34.03
2019-04-29T02:16:23.755Z,33.13
2019-04-29T02:18:53.338Z,35.50
2019-04-29T02:21:22.505Z,33.93
2019-04-29T02:24:08.390Z,34.57
2019-04-29T02:26:37.566Z,32.73
2019-04-29T02:29:06.810Z,35.13
2019-04-29T02:31:40.585Z,34.50
2019-04-29T02:34:10.442Z,34.47
2019-04-29T02:36:39.736Z,34.83
2019-04-29T02:39:21.507Z,34.60
2019-04-29T02:41:52.307Z,34.80
2019-04-29T02:44:21.481Z,36.87
2019-04-29T02:46:50.766Z,36.27
2019-04-29T02:49:20.005Z,35.33
2019-04-29T02:51:54.918Z,34.73
2019-04-29T02:54:25.751Z,34.20
2019-04-29T02:56:56.637Z,34.47
2019-04-29T02:59:33.376Z,34.67
2019-04-29T03:02:20.310Z,34.57
2019-04-29T03:04:51.486Z,35.33
2019-04-29T03:07:21.870Z,35.73
2019-04-29T03:09:51.330Z,36.63
2019-04-29T03:12:20.582Z,36.23
2019-04-29T03:14:49.811Z,38.30
2019-04-29T03:17:19.429Z,35.67
2019-04-29T03:20:07.242Z,36.50
2019-04-29T03:22:39.061Z,37.83
2019-04-29T03:25:08.458Z,36.50
2019-04-29T03:27:37.701Z,36.43
2019-04-29T03:30:08.387Z,36.47
2019-04-29T03:32:37.620Z,37.77
2019-04-29T03:35:07.422Z,38.37
2019-04-29T03:37:36.682Z,40.13
2019-04-29T03:40:06.682Z,38.73
2019-04-29T03:42:35.985Z,37.40
2019-04-29T03:45:06.668Z,40.07
2019-04-29T03:47:35.898Z,38.47
2019-04-29T03:50:06.964Z,38.97
2019-04-29T03:52:36.171Z,37.77
2019-04-29T03:55:07.049Z,37.33
2019-04-29T03:57:37.428Z,38.33
2019-04-29T04:00:12.223Z,38.27
2019-04-29T04:02:55.299Z,36.53
2019-04-29T04:05:26.107Z,36.70
2019-04-29T04:08:05.897Z,35.43
2019-04-29T04:10:35.066Z,37.43
2019-04-29T04:13:04.377Z,37.40
2019-04-29T04:15:33.732Z,36.73
2019-04-29T04:18:04.558Z,39.60
2019-04-29T04:20:34.028Z,38.03
2019-04-29T04:23:03.290Z,38.10
2019-04-29T04:25:32.540Z,37.33
2019-04-29T04:28:01.785Z,38.57
2019-04-29T04:30:31.210Z,37.03
2019-04-29T04:33:00.511Z,38.13
2019-04-29T04:35:29.721Z,38.37
2019-04-29T04:37:58.944Z,38.23
2019-04-29T04:40:33.884Z,38.77
2019-04-29T04:43:03.099Z,38.17
2019-04-29T04:45:32.457Z,38.83
2019-04-29T04:48:01.627Z,39.00
2019-04-29T04:50:30.868Z,37.77
2019-04-29T04:53:00.353Z,38.80
2019-04-29T04:55:31.470Z,38.50
2019-04-29T04:58:00.676Z,38.13
2019-04-29T05:00:31.735Z,38.63
2019-04-29T05:03:00.899Z,38.30
2019-04-29T05:05:30.898Z,38.83
2019-04-29T05:08:00.189Z,39.03
2019-04-29T05:10:29.791Z,38.27
2019-04-29T05:12:59.072Z,35.97
2019-04-29T05:15:28.364Z,36.67
2019-04-29T05:17:57.594Z,37.87
2019-04-29T05:20:26.832Z,40.87
2019-04-29T05:23:01.951Z,43.17
2019-04-29T05:25:33.394Z,41.53
2019-04-29T05:28:03.024Z,41.07
2019-04-29T05:30:32.431Z,41.10
2019-04-29T05:33:01.667Z,37.83
2019-04-29T05:35:32.470Z,39.23
2019-04-29T05:38:09.457Z,42.90
2019-04-29T05:40:40.257Z,50.77
2019-04-29T05:43:11.311Z,47.80
2019-04-29T05:45:46.193Z,47.50
2019-04-29T05:48:14.943Z,52.83
2019-04-29T05:50:47.614Z,52.23
2019-04-29T05:53:20.981Z,54.60
2019-04-29T05:55:52.528Z,56.27
2019-04-29T05:58:21.084Z,59.07
2019-04-29T06:00:51.990Z,61.70
2019-04-29T06:03:21.285Z,61.00
2019-04-29T06:05:50.522Z,61.00
2019-04-29T06:08:20.343Z,56.73
2019-04-29T06:10:49.551Z,55.37
2019-04-29T06:13:18.835Z,50.20
2019-04-29T06:15:48.049Z,46.00
2019-04-29T06:18:17.719Z,48.50
2019-04-29T06:20:48.127Z,46.93
2019-04-29T06:23:18.932Z,46.87
2019-04-29T06:25:48.290Z,48.50
2019-04-29T06:28:21.619Z,46.47
2019-04-29T06:30:50.151Z,46.20
2019-04-29T06:33:19.835Z,53.67
2019-04-29T06:35:49.082Z,54.40
2019-04-29T06:38:18.480Z,62.10
2019-04-29T06:40:47.784Z,63.83
2019-04-29T06:43:17.230Z,62.87
2019-04-29T06:45:46.635Z,57.03
2019-04-29T06:48:15.797Z,58.97
2019-04-29T06:50:44.966Z,59.90
2019-04-29T06:53:16.434Z,59.37
2019-04-29T06:55:45.504Z,62.73
2019-04-29T06:58:14.745Z,61.67
2019-04-29T07:00:43.963Z,62.47
2019-04-29T07:03:13.236Z,65.30
2019-04-29T07:05:42.402Z,54.67
2019-04-29T07:08:11.610Z,49.37
2019-04-29T07:10:40.843Z,48.00
2019-04-29T07:13:10.024Z,49.30
2019-04-29T07:15:39.254Z,51.83
2019-04-29T07:18:08.496Z,44.77
2019-04-29T07:20:38.789Z,31.67
2019-04-29T07:23:08.408Z,29.03
2019-04-29T07:25:37.566Z,27.90
2019-04-29T07:28:06.723Z,28.67
2019-04-29T07:30:39.214Z,27.53
2019-04-29T07:33:06.808Z,29.20
2019-04-29T07:35:38.136Z,27.57
2019-04-29T07:38:08.620Z,27.13
2019-04-29T07:40:38.808Z,27.90
2019-04-29T07:43:09.597Z,27.67
2019-04-29T07:45:58.792Z,25.67
2019-04-29T07:48:28.159Z,26.33
2019-04-29T07:50:59.517Z,25.70
2019-04-29T07:53:35.214Z,23.77
2019-04-29T07:56:01.760Z,24.37
2019-04-29T07:58:29.955Z,22.40
2019-04-29T08:00:59.174Z,22.17
2019-04-29T08:03:28.420Z,24.50
2019-04-29T08:05:58.794Z,22.30
2019-04-29T08:08:30.975Z,21.87
2019-04-29T08:11:00.455Z,22.97
2019-04-29T08:13:33.029Z,21.33
2019-04-29T08:16:02.321Z,21.13
2019-04-29T08:18:31.739Z,21.60
2019-04-29T08:21:00.916Z,20.70
2019-04-29T08:23:33.065Z,20.83
2019-04-29T08:26:02.709Z,21.03
2019-04-29T08:28:32.038Z,19.80
2019-04-29T08:31:01.322Z,20.23
2019-04-29T08:33:30.551Z,19.33
2019-04-29T08:35:59.722Z,18.47
2019-04-29T08:38:29.007Z,19.13
2019-04-29T08:40:58.179Z,19.53
2019-04-29T08:43:29.058Z,19.83
2019-04-29T08:45:59.901Z,20.83
2019-04-29T08:48:29.064Z,21.43
2019-04-29T08:50:58.228Z,19.47
2019-04-29T08:53:27.523Z,21.33
2019-04-29T08:55:56.830Z,20.00
2019-04-29T08:58:26.058Z,21.17
2019-04-29T09:00:55.756Z,20.70
2019-04-29T09:03:39.711Z,19.90
2019-04-29T09:06:05.144Z,19.90
2019-04-29T09:08:28.924Z,21.23
2019-04-29T09:10:58.876Z,21.23
2019-04-29T09:13:28.176Z,20.10
2019-04-29T09:15:57.382Z,21.50
2019-04-29T09:18:26.563Z,20.77
2019-04-29T09:20:55.781Z,20.50
2019-04-29T09:23:32.724Z,19.30
2019-04-29T09:26:06.287Z,20.30
2019-04-29T09:28:35.441Z,20.37
2019-04-29T09:31:04.838Z,19.80
2019-04-29T09:33:34.397Z,20.10
2019-04-29T09:36:03.553Z,20.07
2019-04-29T09:38:36.794Z,21.00
2019-04-29T09:41:11.365Z,23.33
2019-04-29T09:43:48.398Z,22.67
2019-04-29T09:46:19.205Z,23.23
2019-04-29T09:48:48.379Z,21.07
2019-04-29T09:51:22.140Z,25.30
2019-04-29T09:53:48.532Z,20.93
2019-04-29T09:56:17.685Z,21.00
2019-04-29T09:58:46.917Z,20.30
2019-04-29T10:01:18.811Z,22.23
2019-04-29T10:03:53.068Z,21.30
2019-04-29T10:06:24.264Z,22.33
2019-04-29T10:08:53.421Z,19.57
2019-04-29T10:11:22.626Z,25.13
2019-04-29T10:13:51.791Z,21.97
2019-04-29T10:16:25.890Z,21.70
2019-04-29T10:19:05.300Z,19.97
2019-04-29T10:21:33.559Z,20.40
2019-04-29T10:24:02.789Z,21.80
2019-04-29T10:26:32.111Z,21.60
2019-04-29T10:29:02.913Z,21.47
2019-04-29T10:31:32.353Z,20.20
2019-04-29T10:34:01.555Z,19.73
2019-04-29T10:36:30.897Z,21.90
2019-04-29T10:39:02.184Z,21.67
2019-04-29T10:41:36.165Z,21.63
2019-04-29T10:44:18.704Z,21.30
2019-04-29T10:47:05.479Z,20.37
2019-04-29T10:49:42.198Z,21.73
2019-04-29T10:52:11.746Z,19.70
2019-04-29T10:54:40.980Z,20.57
2019-04-29T10:57:10.442Z,20.40
2019-04-29T10:59:44.983Z,21.70
2019-04-29T11:02:22.224Z,21.03
2019-04-29T11:05:11.891Z,20.23
2019-04-29T11:07:40.747Z,20.43
2019-04-29T11:10:24.347Z,19.40
2019-04-29T11:12:44.166Z,19.27
2019-04-29T11:15:15.363Z,19.43
2019-04-29T11:17:46.298Z,20.67
2019-04-29T11:20:21.141Z,22.43
2019-04-29T11:22:48.938Z,20.63
2019-04-29T11:25:26.502Z,19.40
2019-04-29T11:27:59.517Z,20.90
2019-04-29T11:30:30.391Z,19.37
2019-04-29T11:33:07.519Z,17.70
2019-04-29T11:35:50.332Z,17.97
2019-04-29T11:38:19.911Z,17.93
2019-04-29T11:40:51.186Z,18.13
2019-04-29T11:43:20.967Z,17.47
2019-04-29T11:45:50.460Z,18.33
2019-04-29T11:48:19.625Z,17.97
2019-04-29T11:50:55.026Z,17.50
2019-04-29T11:53:24.334Z,17.27
2019-04-29T11:55:56.975Z,18.47
2019-04-29T11:58:38.998Z,17.40
2019-04-29T12:01:15.712Z,17.33
2019-04-29T12:03:56.646Z,17.43
2019-04-29T12:06:24.951Z,17.40
2019-04-29T12:08:55.172Z,17.37
2019-04-29T12:11:28.667Z,18.80
2019-04-29T12:14:03.156Z,17.87
2019-04-29T12:16:35.698Z,18.67
2019-04-29T12:19:17.079Z,18.37
2019-04-29T12:21:47.422Z,16.00
2019-04-29T12:24:16.854Z,16.10
2019-04-29T12:26:46.115Z,16.17
2019-04-29T12:29:18.134Z,15.43
2019-04-29T12:32:04.814Z,15.50
2019-04-29T12:34:36.292Z,16.57
2019-04-29T12:37:07.367Z,16.03
2019-04-29T12:39:50.136Z,16.60
2019-04-29T12:42:40.263Z,15.43
2019-04-29T12:45:26.121Z,14.57
2019-04-29T12:47:55.452Z,15.10
2019-04-29T12:50:24.622Z,16.27
2019-04-29T12:52:53.900Z,16.40
2019-04-29T12:55:45.192Z,16.07
2019-04-29T12:58:07.654Z,16.50
2019-04-29T13:00:47.292Z,15.40
2019-04-29T13:03:30.921Z,15.93
2019-04-29T13:06:02.740Z,15.37
2019-04-29T13:08:36.752Z,13.77
2019-04-29T13:11:08.403Z,14.73
2019-04-29T13:13:37.634Z,15.20
2019-04-29T13:16:11.687Z,15.90
2019-04-29T13:18:48.812Z,14.87
2019-04-29T13:21:16.806Z,14.63
2019-04-29T13:23:59.042Z,13.13
2019-04-29T13:26:27.410Z,12.90
2019-04-29T13:29:02.986Z,13.33
2019-04-29T13:31:20.257Z,13.50
2019-04-29T13:33:52.886Z,12.87
2019-04-29T13:36:25.884Z,14.70
2019-04-29T13:38:54.004Z,13.97
2019-04-29T13:41:25.579Z,14.10
2019-04-29T13:44:03.990Z,14.00
2019-04-29T13:46:32.010Z,13.13
2019-04-29T13:49:12.639Z,13.90
2019-04-29T13:51:38.763Z,14.10
2019-04-29T13:54:07.932Z,14.00
2019-04-29T13:56:54.574Z,14.07
2019-04-29T13:59:10.960Z,13.97
2019-04-29T14:01:58.189Z,13.93
2019-04-29T14:04:24.197Z,15.07
2019-04-29T14:06:57.267Z,14.00
2019-04-29T14:09:21.274Z,14.83
2019-04-29T14:12:01.705Z,13.70
2019-04-29T14:14:22.826Z,13.17
2019-04-29T14:17:11.618Z,12.80
2019-04-29T14:19:40.377Z,12.93
2019-04-29T14:21:54.232Z,12.50
2019-04-29T14:24:23.406Z,13.20
2019-04-29T14:26:52.891Z,13.67
2019-04-29T14:29:23.092Z,14.47
2019-04-29T14:31:59.352Z,13.07
2019-04-29T14:34:34.954Z,12.90
2019-04-29T14:37:19.498Z,13.67
2019-04-29T14:39:37.374Z,14.40
2019-04-29T14:42:07.099Z,13.23
2019-04-29T14:44:37.958Z,12.33
2019-04-29T14:47:26.698Z,12.77
2019-04-29T14:50:03.509Z,12.57
2019-04-29T14:52:32.711Z,11.17
2019-04-29T14:55:01.877Z,11.80
2019-04-29T14:57:31.211Z,12.10
2019-04-29T15:00:00.636Z,10.60
2019-04-29T15:02:30.206Z,10.33
2019-04-29T15:04:59.803Z,10.60
2019-04-29T15:07:30.697Z,10.27
2019-04-29T15:10:00.619Z,9.17
2019-04-29T15:12:51.198Z,8.20
2019-04-29T15:15:13.466Z,8.53
2019-04-29T15:17:47.104Z,7.90
2019-04-29T15:20:31.975Z,8.20
2019-04-29T15:23:01.378Z,8.40
2019-04-29T15:25:31.317Z,8.03
2019-04-29T15:28:00.528Z,8.87
2019-04-29T15:30:31.731Z,8.43
2019-04-29T15:33:01.327Z,8.40
2019-04-29T15:35:30.549Z,8.43
2019-04-29T15:37:59.829Z,8.53
2019-04-29T15:40:29.213Z,8.40
2019-04-29T15:42:58.815Z,7.67
2019-04-29T15:45:32.322Z,8.03
2019-04-29T15:47:59.123Z,8.43
2019-04-29T15:50:28.287Z,8.57
2019-04-29T15:52:58.727Z,9.10
2019-04-29T15:55:28.427Z,9.70
2019-04-29T15:57:57.846Z,9.57
2019-04-29T16:00:31.816Z,10.40
2019-04-29T16:02:58.425Z,10.90
2019-04-29T16:05:35.287Z,11.30
2019-04-29T16:08:08.866Z,10.53
2019-04-29T16:10:58.038Z,10.67
2019-04-29T16:13:27.641Z,10.93
2019-04-29T16:15:57.540Z,11.07
2019-04-29T16:18:26.815Z,11.37
2019-04-29T16:20:55.985Z,11.57
2019-04-29T16:23:25.147Z,11.13
2019-04-29T16:25:54.620Z,12.80
2019-04-29T16:28:30.948Z,12.90
2019-04-29T16:30:54.953Z,12.67
2019-04-29T16:33:24.162Z,13.70
2019-04-29T16:35:57.696Z,13.37
2019-04-29T16:38:24.189Z,13.33
2019-04-29T16:40:57.207Z,13.27
2019-04-29T16:43:33.452Z,13.00
2019-04-29T16:46:16.229Z,13.67
2019-04-29T16:48:45.399Z,13.27
2019-04-29T16:51:16.715Z,14.30
2019-04-29T16:53:45.532Z,13.37
2019-04-29T16:56:16.209Z,13.53
2019-04-29T16:58:45.744Z,14.00
2019-04-29T17:01:15.011Z,13.00
2019-04-29T17:03:44.183Z,13.83
2019-04-29T17:06:13.411Z,13.67
2019-04-29T17:09:04.972Z,13.07
2019-04-29T17:11:31.917Z,13.80
2019-04-29T17:14:07.872Z,13.30
2019-04-29T17:16:32.089Z,13.37
2019-04-29T17:19:01.261Z,13.70
2019-04-29T17:21:30.663Z,12.27
2019-04-29T17:23:59.951Z,13.53
2019-04-29T17:26:33.796Z,12.83
2019-04-29T17:29:11.459Z,13.23
2019-04-29T17:31:55.787Z,14.17
2019-04-29T17:34:43.768Z,12.83
2019-04-29T17:36:49.453Z,13.30
2019-04-29T17:39:18.925Z,13.53
2019-04-29T17:41:48.106Z,14.63
2019-04-29T17:44:20.012Z,14.70
2019-04-29T17:46:59.545Z,15.13
2019-04-29T17:49:39.510Z,15.47
2019-04-29T17:52:10.422Z,14.70
2019-04-29T17:54:58.987Z,15.00
2019-04-29T17:57:31.579Z,15.17
2019-04-29T18:00:11.295Z,15.20
2019-04-29T18:02:47.828Z,15.73
2019-04-29T18:05:33.151Z,15.40
2019-04-29T18:08:05.707Z,15.57
2019-04-29T18:10:38.559Z,14.50
2019-04-29T18:13:07.371Z,14.27
2019-04-29T18:15:51.582Z,14.63
2019-04-29T18:18:16.934Z,14.10
2019-04-29T18:20:44.828Z,14.43
2019-04-29T18:23:32.274Z,14.00
2019-04-29T18:26:04.759Z,14.67
2019-04-29T18:28:35.807Z,15.07
2019-04-29T18:31:06.854Z,14.33
2019-04-29T18:33:36.062Z,14.60
2019-04-29T18:36:07.044Z,14.53
2019-04-29T18:38:36.600Z,14.77
2019-04-29T18:41:05.943Z,15.10
2019-04-29T18:43:35.370Z,14.30
2019-04-29T18:46:05.975Z,15.63
2019-04-29T18:48:35.733Z,15.30
2019-04-29T18:51:05.713Z,14.60
2019-04-29T18:53:35.463Z,15.47
2019-04-29T18:56:05.317Z,15.23
2019-04-29T18:58:35.600Z,17.20
2019-04-29T19:01:05.460Z,16.57
2019-04-29T19:03:49.500Z,15.70
2019-04-29T19:06:19.346Z,16.20
2019-04-29T19:08:48.651Z,17.03
2019-04-29T19:11:17.845Z,16.57
2019-04-29T19:13:48.532Z,18.27
2019-04-29T19:16:21.831Z,17.60
2019-04-29T19:18:51.979Z,17.10
2019-04-29T19:21:23.631Z,19.00
2019-04-29T19:23:52.644Z,18.67
2019-04-29T19:26:22.379Z,15.80
2019-04-29T19:28:52.491Z,16.50
2019-04-29T19:31:21.713Z,15.83
2019-04-29T19:33:50.903Z,16.23
2019-04-29T19:36:21.731Z,18.07
2019-04-29T19:38:51.594Z,17.90
2019-04-29T19:41:20.806Z,15.50
2019-04-29T19:43:55.227Z,18.13
2019-04-29T19:46:24.871Z,17.77
2019-04-29T19:48:52.701Z,17.13
2019-04-29T19:51:23.152Z,17.63
2019-04-29T19:53:52.466Z,18.03
2019-04-29T19:56:24.261Z,16.80
2019-04-29T19:58:52.886Z,17.10
2019-04-29T20:01:28.235Z,18.30
2019-04-29T20:04:01.833Z,17.27
2019-04-29T20:06:32.355Z,16.90
2019-04-29T20:09:03.513Z,17.10
2019-04-29T20:11:34.551Z,18.40
2019-04-29T20:14:08.307Z,18.87
2019-04-29T20:16:44.703Z,18.17
2019-04-29T20:19:19.762Z,18.80
2019-04-29T20:21:46.252Z,18.63
2019-04-29T20:24:17.890Z,18.13
2019-04-29T20:26:47.455Z,17.67
2019-04-29T20:29:17.134Z,17.37
2019-04-29T20:31:52.750Z,17.67
2019-04-29T20:34:23.789Z,17.33
2019-04-29T20:36:48.696Z,17.63
2019-04-29T20:39:23.377Z,18.27
2019-04-29T20:41:49.460Z,16.57
2019-04-29T20:44:19.344Z,16.33
2019-04-29T20:47:12.992Z,17.30
2019-04-29T20:49:20.090Z,18.60
2019-04-29T20:51:52.400Z,19.10
2019-04-29T20:54:29.636Z,19.87
2019-04-29T20:57:04.988Z,19.43
2019-04-29T20:59:30.187Z,19.87
2019-04-29T21:02:12.154Z,19.97
2019-04-29T21:04:45.761Z,19.97
2019-04-29T21:07:07.008Z,18.57
2019-04-29T21:09:36.655Z,20.80
2019-04-29T21:12:10.089Z,21.57
2019-04-29T21:14:40.929Z,20.63
2019-04-29T21:17:11.202Z,20.67
2019-04-29T21:19:40.840Z,19.90
2019-04-29T21:22:20.397Z,21.00
2019-04-29T21:24:45.218Z,21.63
2019-04-29T21:27:15.874Z,21.97
2019-04-29T21:29:45.753Z,21.57
2019-04-29T21:32:15.703Z,19.73
2019-04-29T21:34:46.843Z,22.80
2019-04-29T21:37:20.275Z,23.13
2019-04-29T21:39:51.082Z,23.07
2019-04-29T21:42:21.894Z,24.57
2019-04-29T21:44:51.186Z,23.37
2019-04-29T21:47:21.457Z,24.87
2019-04-29T21:49:54.636Z,23.47
2019-04-29T21:52:24.034Z,24.40
2019-04-29T21:54:52.506Z,25.53
2019-04-29T21:57:23.691Z,25.43
2019-04-29T21:59:52.633Z,24.33
2019-04-29T22:02:22.247Z,24.10
2019-04-29T22:04:51.471Z,23.50
2019-04-29T22:07:21.238Z,24.47
2019-04-29T22:09:50.408Z,25.53
2019-04-29T22:12:20.591Z,24.87
2019-04-29T22:14:53.738Z,24.57
2019-04-29T22:17:21.450Z,25.67
2019-04-29T22:19:50.622Z,27.80
2019-04-29T22:22:19.902Z,27.63
2019-04-29T22:24:51.265Z,25.70
2019-04-29T22:27:20.005Z,27.03
2019-04-29T22:29:49.229Z,25.63
2019-04-29T22:32:19.430Z,26.47
2019-04-29T22:34:49.624Z,24.90
2019-04-29T22:37:20.827Z,25.27
2019-04-29T22:39:50.379Z,29.00
2019-04-29T22:42:27.770Z,30.83
2019-04-29T22:45:00.613Z,28.20
2019-04-29T22:47:29.141Z,28.97
2019-04-29T22:49:58.764Z,30.67
2019-04-29T22:52:31.323Z,31.70
2019-04-29T22:55:02.055Z,31.13
2019-04-29T22:57:31.900Z,30.10
2019-04-29T23:00:01.058Z,30.90
2019-04-29T23:02:30.216Z,31.17
2019-04-29T23:04:59.429Z,30.80
2019-04-29T23:07:28.591Z,32.03
2019-04-29T23:09:57.767Z,32.50
2019-04-29T23:12:27.041Z,29.10
2019-04-29T23:14:56.529Z,30.03
2019-04-29T23:17:27.101Z,30.43
2019-04-29T23:19:58.004Z,30.83
2019-04-29T23:22:47.038Z,33.37
2019-04-29T23:25:26.620Z,34.77
2019-04-29T23:27:54.843Z,34.37
2019-04-29T23:30:27.184Z,35.60
2019-04-29T23:32:57.361Z,36.43
2019-04-29T23:35:26.688Z,36.23
2019-04-29T23:37:58.720Z,36.40
2019-04-29T23:40:26.728Z,37.50
2019-04-29T23:42:57.444Z,36.90
2019-04-29T23:45:26.765Z,36.83
2019-04-29T23:47:55.974Z,35.40
2019-04-29T23:50:25.753Z,37.30
2019-04-29T23:52:56.070Z,37.77
2019-04-29T23:55:29.112Z,38.87
2019-04-29T23:58:13.918Z,38.00
